American Star — WDD7311 — position and weather

sailwx.info

Track history (hours):
 
Tides and Currents Weather Stations Pressure Air Temp Water Temp Dewpoint Dewpoint Depression Visibility Wind Speed Wind Dir Waves Ship Positions

American Star

Owner: American Cruise Lines, Inc, Delmar, DE. More information available from US FCC via Universal Licensing System and Coast Guard Vessel Documentation Center.

Last reported at 2016-Jul-01 22:28 UTC. Time now 2016-Jul-02 00:25 UTC.
Position N 41°48' W 071°24'.

Length 60 m; draft 2.1 m.

Type: Ship (hazmat cat C). MMSI: 367184740.

Date/timePositionNaut miles runAvg speedWind from/ knotsBaromVisibWave heightAir tempDewpointWater temp
2016-Jul-01 22:28N 41°48' W 071°24'10 2.1
2016-Jul-01 17:33N 41°40' W 071°16'6 1.9
2016-Jul-01 14:23N 41°34' W 071°19'5 0.2
2016-Jun-30 12:33N 41°29' W 071°20'  
2016-Jun-27 15:07N 41°17' W 070°05'0 0.0
2016-Jun-27 13:15N 41°17' W 070°05'0 0.0
2016-Jun-27 12:33N 41°17' W 070°05'11 8.0
2016-Jun-27 11:10N 41°26' W 070°15'6 9.8
2016-Jun-27 10:33N 41°27' W 070°22'1110.5
2016-Jun-27 09:32N 41°30' W 070°36'16 3.3
2016-Jun-27 04:32N 41°38' W 070°55'13 0.4
2016-Jun-25 19:10N 41°38' W 071°13'3 5.3
2016-Jun-25 18:33N 41°38' W 071°17'10 9.5
2016-Jun-25 17:34N 41°46' W 071°22'3 0.7
2016-Jun-25 13:31N 41°49' W 071°24'0 0.0
2016-Jun-25 12:32N 41°49' W 071°24'0 0.0
2016-Jun-25 11:25N 41°49' W 071°24'0 0.0
2016-Jun-25 10:13N 41°49' W 071°24'0 0.0
2016-Jun-25 09:25N 41°49' W 071°24'0 0.0
2016-Jun-25 08:31N 41°49' W 071°24'0 0.0
2016-Jun-25 05:31N 41°49' W 071°24'0 0.0
2016-Jun-25 02:31N 41°49' W 071°24'0 0.0
2016-Jun-24 23:26N 41°49' W 071°24'0 0.0
2016-Jun-24 22:33N 41°49' W 071°24'10 9.6
2016-Jun-24 21:33N 41°40' W 071°19'2 0.6
2016-Jun-24 18:24N 41°40' W 071°16'0 0.0
2016-Jun-24 16:30N 41°40' W 071°16'3 1.3
2016-Jun-24 14:33N 41°37' W 071°17'9 6.2
2016-Jun-24 13:08N 41°29' W 071°20'0 0.0
2016-Jun-24 12:26N 41°29' W 071°20'0 0.0
2016-Jun-24 11:32N 41°29' W 071°20'0 0.0
2016-Jun-24 10:19N 41°29' W 071°20'0 0.0
2016-Jun-24 09:32N 41°29' W 071°20'0 0.0
2016-Jun-24 08:32N 41°29' W 071°20'0 0.0
2016-Jun-24 07:26N 41°29' W 071°20'0 0.0
2016-Jun-24 04:32N 41°29' W 071°20'0 0.0
2016-Jun-24 03:26N 41°29' W 071°20'0 0.0
2016-Jun-24 02:14N 41°29' W 071°20'0 0.0
2016-Jun-24 01:20N 41°29' W 071°20'0 0.0
2016-Jun-24 00:20N 41°29' W 071°20'0 0.0
2016-Jun-23 23:14N 41°29' W 071°20'0 0.0
2016-Jun-23 22:33N 41°29' W 071°20'0 0.0
2016-Jun-23 20:26N 41°29' W 071°20'0 0.0
2016-Jun-23 19:08N 41°29' W 071°20'0 0.0
2016-Jun-23 16:26N 41°29' W 071°20'0 0.0
2016-Jun-23 15:27N 41°29' W 071°20'0 0.0
2016-Jun-23 14:32N 41°29' W 071°20'0 0.0
2016-Jun-23 13:26N 41°29' W 071°20'0 0.1
2016-Jun-23 12:34N 41°29' W 071°20'16 0.6
2016-Jun-22 11:32N 41°27' W 070°59'  
Track history (hours):
 
Tides and Currents Weather Stations Pressure Air Temp Water Temp Dewpoint Dewpoint Depression Visibility Wind Speed Wind Dir Waves Ship Positions

American Star

Owner: American Cruise Lines, Inc, Delmar, DE. More information available from US FCC via Universal Licensing System and Coast Guard Vessel Documentation Center.

Last reported at 2016-Jul-01 22:28 UTC. Time now 2016-Jul-02 00:25 UTC.
Position N 41°48' W 071°24'.

Length 60 m; draft 2.1 m.

Type: Ship (hazmat cat C). MMSI: 367184740.

Date/timePositionNaut miles runAvg speedWind from/ knotsBaromVisibWave heightAir tempDewpointWater temp
2016-Jul-01 22:28N 41°48' W 071°24'10 2.1
2016-Jul-01 17:33N 41°40' W 071°16'6 1.9
2016-Jul-01 14:23N 41°34' W 071°19'5 0.2
2016-Jun-30 12:33N 41°29' W 071°20'  
2016-Jun-27 15:07N 41°17' W 070°05'0 0.0
2016-Jun-27 13:15N 41°17' W 070°05'0 0.0
2016-Jun-27 12:33N 41°17' W 070°05'11 8.0
2016-Jun-27 11:10N 41°26' W 070°15'6 9.8
2016-Jun-27 10:33N 41°27' W 070°22'1110.5
2016-Jun-27 09:32N 41°30' W 070°36'16 3.3
2016-Jun-27 04:32N 41°38' W 070°55'13 0.4
2016-Jun-25 19:10N 41°38' W 071°13'3 5.3
2016-Jun-25 18:33N 41°38' W 071°17'10 9.5
2016-Jun-25 17:34N 41°46' W 071°22'3 0.7
2016-Jun-25 13:31N 41°49' W 071°24'0 0.0
2016-Jun-25 12:32N 41°49' W 071°24'0 0.0
2016-Jun-25 11:25N 41°49' W 071°24'0 0.0
2016-Jun-25 10:13N 41°49' W 071°24'0 0.0
2016-Jun-25 09:25N 41°49' W 071°24'0 0.0
2016-Jun-25 08:31N 41°49' W 071°24'0 0.0
2016-Jun-25 05:31N 41°49' W 071°24'0 0.0
2016-Jun-25 02:31N 41°49' W 071°24'0 0.0
2016-Jun-24 23:26N 41°49' W 071°24'0 0.0
2016-Jun-24 22:33N 41°49' W 071°24'10 9.6
2016-Jun-24 21:33N 41°40' W 071°19'2 0.6
2016-Jun-24 18:24N 41°40' W 071°16'0 0.0
2016-Jun-24 16:30N 41°40' W 071°16'3 1.3
2016-Jun-24 14:33N 41°37' W 071°17'9 6.2
2016-Jun-24 13:08N 41°29' W 071°20'0 0.0
2016-Jun-24 12:26N 41°29' W 071°20'0 0.0
2016-Jun-24 11:32N 41°29' W 071°20'0 0.0
2016-Jun-24 10:19N 41°29' W 071°20'0 0.0
2016-Jun-24 09:32N 41°29' W 071°20'0 0.0
2016-Jun-24 08:32N 41°29' W 071°20'0 0.0
2016-Jun-24 07:26N 41°29' W 071°20'0 0.0
2016-Jun-24 04:32N 41°29' W 071°20'0 0.0
2016-Jun-24 03:26N 41°29' W 071°20'0 0.0
2016-Jun-24 02:14N 41°29' W 071°20'0 0.0
2016-Jun-24 01:20N 41°29' W 071°20'0 0.0
2016-Jun-24 00:20N 41°29' W 071°20'0 0.0
2016-Jun-23 23:14N 41°29' W 071°20'0 0.0
2016-Jun-23 22:33N 41°29' W 071°20'0 0.0
2016-Jun-23 20:26N 41°29' W 071°20'0 0.0
2016-Jun-23 19:08N 41°29' W 071°20'0 0.0
2016-Jun-23 16:26N 41°29' W 071°20'0 0.0
2016-Jun-23 15:27N 41°29' W 071°20'0 0.0
2016-Jun-23 14:32N 41°29' W 071°20'0 0.0
2016-Jun-23 13:26N 41°29' W 071°20'0 0.1
2016-Jun-23 12:34N 41°29' W 071°20'16 0.6
2016-Jun-22 11:32N 41°27' W 070°59'  

Dump ship's entire track history